Time;durP1;ratioP1;P1;durP2;ratioP2;P2;SDS_P1;SDS_P2;PMS_P1;PMS_P2;Temp;Humidity;BMP_temperature;BMP_pressure;BME280_temperature;BME280_humidity;BME280_pressure;Samples;Min_cycle;Max_cycle;Signal;HPM_P1;HPM_P2
2023/05/28 00:00:20;;;;;;;11.40;6.45;;;;;;;10.61;67.86;101874.38;5049991;28;20021;-84
2023/05/28 00:02:45;;;;;;;9.00;5.60;;;;;;;10.59;67.86;101870.19;5044931;28;20568;-84
2023/05/28 00:05:10;;;;;;;9.88;5.43;;;;;;;10.57;67.51;101880.28;5029314;28;20047;-84
2023/05/28 00:07:36;;;;;;;11.18;5.38;;;;;;;10.54;67.79;101876.06;5030170;28;20120;-84
2023/05/28 00:10:01;;;;;;;7.88;5.20;;;;;;;10.52;67.65;101874.56;5047337;28;20519;-84
2023/05/28 00:12:27;;;;;;;10.23;5.20;;;;;;;10.48;67.46;101867.84;5050378;28;20029;-84
2023/05/28 00:14:52;;;;;;;7.80;4.82;;;;;;;10.41;67.65;101868.50;5051924;28;20637;-83
2023/05/28 00:17:18;;;;;;;11.02;5.10;;;;;;;10.34;68.36;101864.81;5048042;28;20029;-84
2023/05/28 00:19:46;;;;;;;8.30;5.35;;;;;;;10.27;69.36;101855.72;5050132;28;20380;-84
2023/05/28 00:22:15;;;;;;;10.85;4.93;;;;;;;10.21;69.05;101862.63;5051508;28;20021;-84
2023/05/28 00:24:40;;;;;;;9.07;4.75;;;;;;;10.14;69.45;101865.16;5047415;28;20063;-84
2023/05/28 00:27:06;;;;;;;7.20;4.38;;;;;;;10.09;69.77;101867.50;5049364;28;20434;-84
2023/05/28 00:29:31;;;;;;;8.38;4.85;;;;;;;10.05;69.91;101860.78;5051130;28;20423;-84
2023/05/28 00:31:57;;;;;;;7.55;4.90;;;;;;;10.00;69.77;101865.84;5048515;28;20033;-84
2023/05/28 00:34:23;;;;;;;11.13;5.38;;;;;;;10.01;70.51;101859.44;5047986;28;20112;-83
2023/05/28 00:36:48;;;;;;;10.25;5.78;;;;;;;9.99;71.02;101864.16;5051109;28;20035;-84
2023/05/28 00:39:15;;;;;;;8.50;5.22;;;;;;;9.97;70.74;101855.41;5055630;28;20025;-83
2023/05/28 00:41:40;;;;;;;10.55;4.93;;;;;;;9.97;70.73;101855.41;5050006;28;20477;-84
2023/05/28 00:44:06;;;;;;;10.23;5.30;;;;;;;9.91;70.69;101856.91;5048196;28;20028;-85
2023/05/28 00:46:31;;;;;;;8.23;4.45;;;;;;;9.88;70.27;101861.81;5052975;28;20056;-85
2023/05/28 00:48:56;;;;;;;10.82;5.25;;;;;;;9.81;70.57;101862.47;5052736;28;20040;-84
2023/05/28 00:51:22;;;;;;;;;;;;;;;9.71;71.66;101853.69;5035921;28;20021;-85
2023/05/28 00:53:47;;;;;;;9.47;4.83;;;;;;;9.71;71.45;101861.75;5034867;28;19917;-84
2023/05/28 00:56:12;;;;;;;11.50;6.28;;;;;;;9.63;71.33;101859.91;5038980;28;20027;-85
2023/05/28 00:58:42;;;;;;;;;;;;;;;9.61;71.89;101861.94;5037774;28;20548;-85
2023/05/28 01:01:08;;;;;;;13.20;6.43;;;;;;;9.65;72.16;101863.28;5051958;28;20429;-84
2023/05/28 01:03:37;;;;;;;10.43;6.75;;;;;;;9.65;71.85;101873.19;5054280;28;20021;-85
2023/05/28 01:06:11;;;;;;;15.30;6.93;;;;;;;9.65;71.98;101862.44;5029181;28;20117;-84
2023/05/28 01:08:37;;;;;;;13.65;7.00;;;;;;;9.62;72.13;101862.78;5032816;28;20029;-85
2023/05/28 01:11:02;;;;;;;12.48;7.07;;;;;;;9.60;72.06;101867.47;5056781;28;20029;-84
2023/05/28 01:13:28;;;;;;;12.18;7.38;;;;;;;9.59;72.00;101873.84;5026390;28;20428;-85
2023/05/28 01:15:53;;;;;;;;;;;;;;;9.53;71.51;101878.88;5061687;28;20021;-85
2023/05/28 01:18:19;;;;;;;15.20;7.43;;;;;;;9.53;71.52;101876.19;5036609;28;20360;-85
2023/05/28 01:20:44;;;;;;;13.07;7.63;;;;;;;9.52;72.11;101873.69;5010648;28;20083;-84
2023/05/28 01:23:20;;;;;;;12.00;7.35;;;;;;;9.52;72.04;101874.53;5033801;28;20025;-85
2023/05/28 01:25:50;;;;;;;12.07;7.20;;;;;;;9.53;72.12;101865.44;5039904;28;20381;-85
2023/05/28 01:28:15;;;;;;;11.73;7.45;;;;;;;9.50;71.74;101876.53;5018373;28;20052;-85
2023/05/28 01:30:41;;;;;;;13.98;7.45;;;;;;;9.51;71.58;101875.53;5052915;28;20025;-85
2023/05/28 01:33:16;;;;;;;;;;;;;;;9.50;72.06;101876.53;5045858;28;20035;-84
2023/05/28 01:35:41;;;;;;;12.35;7.28;;;;;;;9.56;71.89;101872.34;5033506;28;19917;-85
2023/05/28 01:38:07;;;;;;;12.38;6.68;;;;;;;9.55;71.82;101874.19;5016503;28;20354;-84
2023/05/28 01:40:32;;;;;;;;;;;;;;;9.56;71.98;101880.41;5008917;28;20029;-84
2023/05/28 01:42:58;;;;;;;13.10;6.93;;;;;;;9.63;71.96;101870.66;5032281;28;20030;-84
2023/05/28 01:45:24;;;;;;;12.73;7.43;;;;;;;9.64;71.60;101871.50;5033999;28;20028;-84
2023/05/28 01:47:49;;;;;;;;;;;;;;;9.60;72.10;101871.00;5013255;28;20100;-84
2023/05/28 01:50:14;;;;;;;13.13;6.70;;;;;;;9.53;72.10;101878.03;5030203;28;20360;-84
2023/05/28 01:52:40;;;;;;;;;;;;;;;9.42;72.38;101879.19;5052270;28;20295;-85
2023/05/28 01:55:08;;;;;;;12.60;6.47;;;;;;;9.37;72.31;101876.16;5048464;28;19967;-84
2023/05/28 01:57:34;;;;;;;13.35;7.40;;;;;;;9.28;73.00;101866.38;5053596;28;20035;-85
2023/05/28 01:59:59;;;;;;;;;;;;;;;9.22;73.25;101868.72;5052215;28;20117;-84
2023/05/28 02:02:26;;;;;;;14.95;7.38;;;;;;;9.22;73.11;101866.03;5052122;28;19964;-86
2023/05/28 02:04:52;;;;;;;12.07;6.97;;;;;;;9.17;73.50;101864.84;5029012;28;20053;-87
2023/05/28 02:07:17;;;;;;;;;;;;;;;9.06;73.41;101863.28;5052072;28;20075;-87
2023/05/28 02:09:43;;;;;;;11.52;6.72;;;;;;;9.03;74.23;101863.59;5052329;28;20304;-88
2023/05/28 02:12:08;;;;;;;;;;;;;;;8.92;74.68;101857.53;5049772;28;20029;-87
2023/05/28 02:14:33;;;;;;;12.23;6.57;;;;;;;8.88;74.34;101856.16;5053134;28;19925;-88
2023/05/28 02:16:59;;;;;;;;;;;;;;;8.90;74.66;101851.47;5045850;28;20294;-88
2023/05/28 02:19:25;;;;;;;13.00;6.97;;;;;;;8.91;75.67;101844.28;5053478;28;19947;-88
2023/05/28 02:21:50;;;;;;;;;;;;;;;8.83;75.41;101837.00;5048822;28;20100;-89
2023/05/28 02:24:16;;;;;;;13.83;6.97;;;;;;;8.82;75.80;101834.50;5045672;28;19921;-87
2023/05/28 02:26:41;;;;;;;;;;;;;;;8.74;75.27;101836.13;5058133;28;20039;-88
2023/05/28 02:29:06;;;;;;;10.50;6.30;;;;;;;8.69;75.96;101837.59;5051294;28;19983;-88
2023/05/28 02:31:31;;;;;;;;;;;;;;;8.62;76.16;101834.72;5060084;22;20045;-88
2023/05/28 02:33:57;;;;;;;10.47;6.80;;;;;;;8.64;75.82;101836.28;5056051;28;19931;-88
2023/05/28 02:36:22;;;;;;;;;;;;;;;8.60;76.84;101834.91;5056651;28;20020;-88
2023/05/28 02:38:48;;;;;;;9.85;6.35;;;;;;;8.59;76.28;101835.03;5061529;28;19975;-88
2023/05/28 02:41:16;;;;;;;;;;;;;;;8.58;76.82;101836.03;5061499;28;20049;-88
2023/05/28 02:43:42;;;;;;;13.82;6.65;;;;;;;8.52;77.06;101850.94;5047252;28;19960;-88
2023/05/28 02:46:07;;;;;;;;;;;;;;;8.40;77.54;101846.81;5051449;28;20098;-89
2023/05/28 02:48:32;;;;;;;12.80;7.17;;;;;;;8.39;77.54;101845.13;5045660;28;19913;-88
2023/05/28 02:50:58;;;;;;;;;;;;;;;8.31;77.33;101846.75;5060996;28;20067;-87
2023/05/28 02:53:23;;;;;;;9.63;5.90;;;;;;;8.28;77.67;101841.72;5059044;28;19955;-87
2023/05/28 02:55:49;;;;;;;;;;;;;;;8.21;78.56;101840.66;5060494;28;20033;-88
2023/05/28 02:58:17;;;;;;;11.50;6.68;;;;;;;8.23;78.04;101851.22;5073002;28;19971;-88
2023/05/28 03:00:42;;;;;;;16.55;6.82;;;;;;;8.17;78.53;101855.38;5055927;28;20127;-87
2023/05/28 03:03:08;;;;;;;;;;;;;;;8.06;78.80;101845.72;5055208;28;20036;-87
2023/05/28 03:05:34;;;;;;;11.40;6.85;;;;;;;8.03;78.80;101859.47;5050871;28;19940;-87
2023/05/28 03:08:00;;;;;;;13.65;6.90;;;;;;;7.97;79.22;101852.03;5052767;28;20021;-88
2023/05/28 03:10:25;;;;;;;;;;;;;;;7.92;79.56;101860.56;5053054;28;20041;-88
2023/05/28 03:12:50;;;;;;;12.20;6.87;;;;;;;7.93;79.93;101864.06;5059555;28;19917;-88
2023/05/28 03:15:16;;;;;;;;;;;;;;;7.89;79.82;101868.91;5052171;28;20487;-87
2023/05/28 03:17:41;;;;;;;13.13;6.80;;;;;;;7.88;79.48;101867.22;5051008;28;19917;-88
2023/05/28 03:20:10;;;;;;;;;;;;;;;7.87;80.81;101870.88;5049856;28;20021;-87
2023/05/28 03:22:36;;;;;;;12.90;7.30;;;;;;;7.85;80.66;101864.84;5050251;28;19920;-87
2023/05/28 03:25:01;;;;;;;;;;;;;;;7.87;80.95;101862.84;5051757;28;20035;-88
2023/05/28 03:27:27;;;;;;;14.18;7.05;;;;;;;7.90;81.44;101865.22;5049971;28;19948;-88
2023/05/28 03:29:52;;;;;;;;;;;;;;;7.94;81.70;101855.03;5067606;23;20508;-88
2023/05/28 03:32:24;;;;;;;15.17;7.43;;;;;;;7.99;81.84;101844.69;5053077;28;19917;-88
2023/05/28 03:34:58;;;;;;;14.68;7.93;;;;;;;8.03;82.14;101838.84;5047874;28;20762;-88
2023/05/28 03:37:36;;;;;;;12.70;7.93;;;;;;;8.09;81.58;101845.41;5055726;28;21830;-88
2023/05/28 03:40:08;;;;;;;18.27;8.13;;;;;;;8.12;82.11;101844.28;5058254;28;20041;-88
2023/05/28 03:42:34;;;;;;;15.15;8.00;;;;;;;8.14;81.36;101853.00;5042217;28;20037;-88
2023/05/28 03:45:00;;;;;;;12.90;7.20;;;;;;;8.18;81.89;101854.38;5047469;28;20075;-86
2023/05/28 03:47:26;;;;;;;;;;;;;;;8.13;81.15;101860.22;5059314;28;20029;-87
2023/05/28 03:49:52;;;;;;;12.90;7.38;;;;;;;8.17;80.95;101869.63;5051331;28;20042;-87
2023/05/28 03:52:17;;;;;;;;;;;;;;;8.16;81.15;101875.13;5052087;28;20036;-88
2023/05/28 03:54:42;;;;;;;13.00;6.60;;;;;;;8.19;81.57;101861.41;5047792;28;19917;-86
2023/05/28 03:57:07;;;;;;;;;;;;;;;8.25;81.97;101871.53;5051237;28;20307;-88
2023/05/28 03:59:33;;;;;;;13.00;7.67;;;;;;;8.32;81.81;101871.75;5051674;28;19921;-81
2023/05/28 04:01:58;;;;;;;;;;;;;;;8.36;81.44;101862.41;5031278;28;20336;-81
2023/05/28 04:04:24;;;;;;;13.45;7.50;;;;;;;8.40;81.82;101873.66;5049339;28;20002;-81
2023/05/28 04:06:49;;;;;;;;;;;;;;;8.43;81.02;101867.97;5048241;28;20029;-81
2023/05/28 04:09:14;;;;;;;15.40;7.40;;;;;;;8.51;81.48;101865.34;5047165;28;19921;-81
2023/05/28 04:11:40;;;;;;;;;;;;;;;8.56;81.40;101871.09;5031844;28;20393;-81
2023/05/28 04:14:06;;;;;;;12.15;6.90;;;;;;;8.64;82.05;101863.13;5051385;28;20210;-81
2023/05/28 04:16:31;;;;;;;;;;;;;;;8.75;82.29;101867.34;5039363;28;20032;-81
2023/05/28 04:18:56;;;;;;;12.53;6.97;;;;;;;8.88;81.28;101863.38;5051750;28;20474;-81
2023/05/28 04:21:22;;;;;;;;;;;;;;;8.95;81.40;101862.59;5052517;28;20025;-81
2023/05/28 04:23:48;;;;;;;15.43;7.43;;;;;;;9.09;80.88;101868.34;5051517;28;19927;-81
2023/05/28 04:26:14;;;;;;;;;;;;;;;9.40;80.63;101870.44;5052755;28;20021;-81
2023/05/28 04:28:40;;;;;;;16.35;8.23;;;;;;;9.83;79.49;101871.22;5054372;28;19935;-81
2023/05/28 04:31:06;;;;;;;15.13;7.40;;;;;;;10.34;77.16;101867.50;5051045;28;20038;-82
2023/05/28 04:33:36;;;;;;;15.05;8.00;;;;;;;10.90;75.23;101877.50;5051646;28;20033;-81
2023/05/28 04:36:01;;;;;;;15.65;8.40;;;;;;;11.37;72.98;101876.59;5048665;28;20027;-81
2023/05/28 04:38:31;;;;;;;16.50;7.43;;;;;;;11.56;72.07;101882.56;5050751;28;20017;-82
2023/05/28 04:40:57;;;;;;;12.20;8.02;;;;;;;11.68;71.19;101866.81;5051925;28;20036;-82
2023/05/28 04:43:23;;;;;;;16.45;8.75;;;;;;;11.34;72.35;101860.78;5054135;28;20350;-82
2023/05/28 04:45:53;;;;;;;20.65;8.65;;;;;;;11.21;73.33;101858.63;5046453;28;20047;-82
2023/05/28 04:48:18;;;;;;;15.05;7.80;;;;;;;11.16;73.61;101866.44;5055598;28;20025;-82
2023/05/28 04:50:44;;;;;;;17.10;8.23;;;;;;;11.03;74.08;101871.56;5054955;28;20043;-82
2023/05/28 04:53:09;;;;;;;18.02;8.88;;;;;;;11.03;74.36;101871.56;5051737;28;20083;-82
2023/05/28 04:55:34;;;;;;;13.70;7.90;;;;;;;10.96;75.23;101881.34;5053060;28;20040;-83
2023/05/28 04:58:00;;;;;;;14.93;8.10;;;;;;;10.96;75.36;101886.72;5051940;28;20059;-82
2023/05/28 05:00:26;;;;;;;15.57;8.00;;;;;;;11.10;75.63;101886.00;5053260;28;20044;-82
2023/05/28 05:02:52;;;;;;;16.95;8.45;;;;;;;11.92;73.01;101887.38;5053262;28;20119;-82
2023/05/28 05:05:18;;;;;;;19.48;8.40;;;;;;;12.99;68.95;101887.38;5051322;28;20051;-82
2023/05/28 05:07:44;;;;;;;14.80;8.20;;;;;;;13.84;66.01;101890.47;5051533;28;20033;-82
2023/05/28 05:10:09;;;;;;;15.68;8.00;;;;;;;14.72;63.92;101888.47;5050367;28;20395;-82
2023/05/28 05:12:35;;;;;;;16.35;8.45;;;;;;;15.35;60.97;101890.25;5052699;28;20094;-82
2023/05/28 05:15:00;;;;;;;13.95;7.65;;;;;;;16.15;58.95;101895.03;5044065;28;20028;-83
2023/05/28 05:17:26;;;;;;;15.98;8.50;;;;;;;16.56;57.14;101906.69;5045475;28;20036;-83
2023/05/28 05:19:52;;;;;;;15.60;8.18;;;;;;;16.98;56.02;101901.81;5035513;28;20025;-85
2023/05/28 05:22:17;;;;;;;15.38;7.97;;;;;;;17.24;55.52;101905.50;5051186;28;20028;-84
2023/05/28 05:24:43;;;;;;;15.55;8.05;;;;;;;17.40;54.98;101906.88;5048421;28;20040;-86
2023/05/28 05:27:08;;;;;;;17.73;9.15;;;;;;;17.57;53.87;101899.03;5044541;28;20044;-85
2023/05/28 05:29:33;;;;;;;18.52;8.50;;;;;;;17.42;54.55;101904.75;5027136;28;20403;-86
2023/05/28 05:31:59;;;;;;;13.13;8.40;;;;;;;17.92;53.11;101909.50;5057403;28;20041;-88
2023/05/28 05:34:24;;;;;;;23.65;8.68;;;;;;;18.00;52.53;101902.97;5051514;28;20020;-84
2023/05/28 05:36:50;;;;;;;18.60;9.13;;;;;;;18.19;52.55;101903.88;5053319;28;20154;-86
2023/05/28 05:39:18;;;;;;;20.55;8.60;;;;;;;18.58;51.62;101907.28;5055080;28;20041;-91
2023/05/28 05:41:46;;;;;;;15.45;9.05;;;;;;;18.66;51.30;101914.34;5042415;28;20105;-94
2023/05/28 05:44:11;;;;;;;16.00;8.43;;;;;;;19.19;50.56;101920.31;5055372;28;20025;-93
2023/05/28 05:46:37;;;;;;;14.35;8.30;;;;;;;19.47;49.78;101918.91;5032058;28;20029;-82
2023/05/28 05:49:03;;;;;;;14.38;8.23;;;;;;;19.72;48.55;101915.19;5047809;28;20461;-82
2023/05/28 05:51:32;;;;;;;16.20;8.20;;;;;;;19.34;48.72;101912.56;5046031;28;20066;-89
2023/05/28 05:53:57;;;;;;;16.35;8.57;;;;;;;19.63;48.85;101915.53;5044807;28;20474;-93
2023/05/28 05:56:25;;;;;;;15.27;8.20;;;;;;;19.98;48.55;101903.06;5055294;28;20104;-94
2023/05/28 05:59:17;;;;;;;16.70;8.00;;;;;;;21.02;46.38;101909.84;5051209;28;20032;-92
2023/05/28 06:01:43;;;;;;;15.05;8.60;;;;;;;20.29;46.63;101912.84;5057790;28;20052;-93
2023/05/28 06:04:09;;;;;;;16.17;7.90;;;;;;;19.85;47.24;101909.56;5049620;28;20365;-89
2023/05/28 06:06:36;;;;;;;14.90;8.68;;;;;;;18.75;50.03;101909.44;5051612;28;20060;-87
2023/05/28 06:09:02;;;;;;;15.65;8.10;;;;;;;18.10;51.87;101899.75;5052738;28;20028;-88
2023/05/28 06:11:27;;;;;;;16.48;8.00;;;;;;;17.99;52.66;101909.47;5052890;28;20021;-90
2023/05/28 06:13:52;;;;;;;13.68;8.60;;;;;;;17.61;53.53;101904.88;5034913;28;20017;-88
2023/05/28 06:16:18;;;;;;;17.00;8.55;;;;;;;17.43;54.44;101904.56;5050093;28;20396;-86
2023/05/28 06:21:32;;;;;;;17.08;8.48;;;;;;;16.90;57.23;101902.03;5048700;28;20048;-85
2023/05/28 06:23:57;;;;;;;17.23;9.30;;;;;;;17.04;57.23;101903.69;5051428;28;20017;-86
2023/05/28 06:26:23;;;;;;;20.55;9.07;;;;;;;17.12;56.95;101906.16;5050286;28;20436;-85
2023/05/28 06:28:51;;;;;;;16.40;8.65;;;;;;;17.13;57.18;101907.81;5053668;28;20053;-86
2023/05/28 06:31:19;;;;;;;15.60;8.98;;;;;;;17.86;55.73;101904.94;5056057;28;20029;-88
2023/05/28 06:33:45;;;;;;;17.15;9.23;;;;;;;18.76;53.54;101900.19;5048138;28;20029;-88
2023/05/28 06:36:11;;;;;;;18.52;9.25;;;;;;;19.80;50.20;101896.56;5048987;28;20021;-85
2023/05/28 06:38:36;;;;;;;13.98;7.70;;;;;;;20.70;47.07;101902.03;5057308;28;20350;-86
2023/05/28 06:41:01;;;;;;;13.75;7.55;;;;;;;21.49;46.13;101897.09;5052858;28;20028;-86
2023/05/28 06:43:27;;;;;;;14.60;7.85;;;;;;;22.71;42.80;101907.59;5052785;28;20021;-87
2023/05/28 06:45:52;;;;;;;18.10;7.60;;;;;;;23.57;40.21;101910.84;5052121;28;20029;-90
2023/05/28 06:48:17;;;;;;;12.77;7.25;;;;;;;24.50;38.98;101911.66;5035222;28;20025;-88
2023/05/28 06:50:43;;;;;;;13.55;7.15;;;;;;;25.17;37.33;101913.94;5051701;28;20050;-89
2023/05/28 06:53:09;;;;;;;14.05;7.63;;;;;;;26.05;35.48;101914.09;5052799;28;20063;-89
2023/05/28 06:55:34;;;;;;;12.30;6.95;;;;;;;25.93;35.10;101913.56;5052254;28;20062;-88
2023/05/28 06:58:02;;;;;;;14.15;7.03;;;;;;;26.21;34.58;101914.94;5052504;28;20028;-89
2023/05/28 07:00:27;;;;;;;13.35;6.88;;;;;;;25.95;35.09;101914.94;5035269;28;20025;-89
2023/05/28 07:02:53;;;;;;;12.57;6.63;;;;;;;25.40;35.70;101914.56;5048414;28;20025;-89
2023/05/28 07:05:18;;;;;;;14.20;7.05;;;;;;;24.89;36.15;101923.47;5043050;28;20392;-89
2023/05/28 07:07:43;;;;;;;10.98;6.65;;;;;;;24.47;36.60;101911.38;5056858;28;20036;-89
2023/05/28 07:10:09;;;;;;;13.63;7.30;;;;;;;24.25;37.46;101920.56;5032319;28;20115;-89
2023/05/28 07:12:35;;;;;;;12.95;7.30;;;;;;;23.24;40.13;101922.88;5044888;28;20144;-88
2023/05/28 07:15:01;;;;;;;14.32;7.43;;;;;;;23.77;39.50;101921.25;5044930;28;20055;-89
2023/05/28 07:17:27;;;;;;;14.77;7.13;;;;;;;24.33;38.40;101928.34;5054620;28;20522;-88
2023/05/28 07:19:52;;;;;;;12.00;7.03;;;;;;;24.33;38.50;101917.34;5057209;28;20025;-88
2023/05/28 07:22:17;;;;;;;13.35;7.00;;;;;;;24.71;37.72;101928.31;5036799;28;20032;-88
2023/05/28 07:24:43;;;;;;;12.80;6.82;;;;;;;24.39;38.02;101920.94;5051603;28;20028;-89
2023/05/28 07:27:09;;;;;;;14.25;7.88;;;;;;;24.49;37.82;101925.69;5048126;28;20030;-89
2023/05/28 07:29:35;;;;;;;17.75;7.78;;;;;;;24.62;38.17;101922.47;5043773;28;20052;-89
2023/05/28 07:32:00;;;;;;;14.07;7.35;;;;;;;25.39;37.09;101926.69;5046721;28;20036;-89
2023/05/28 07:34:25;;;;;;;12.10;7.13;;;;;;;25.46;36.82;101926.47;5053472;28;20111;-90
2023/05/28 07:36:51;;;;;;;15.05;6.50;;;;;;;25.63;36.63;101931.72;5058157;28;20029;-89
2023/05/28 07:39:16;;;;;;;14.57;8.70;;;;;;;25.21;38.05;101931.59;5035903;28;20044;-88
2023/05/28 07:41:42;;;;;;;13.70;8.38;;;;;;;25.80;37.31;101943.31;5054944;28;20035;-89
2023/05/28 07:44:11;;;;;;;13.88;7.43;;;;;;;26.83;35.73;101944.41;5044603;28;20082;-89
2023/05/28 07:46:36;;;;;;;11.18;7.45;;;;;;;27.69;33.48;101953.44;5043995;28;20037;-90
2023/05/28 07:49:02;;;;;;;13.90;7.72;;;;;;;28.39;32.50;101956.22;5067849;28;20045;-90
2023/05/28 07:51:27;;;;;;;15.20;8.05;;;;;;;28.55;32.07;101943.88;5064696;28;20170;-89
2023/05/28 07:53:53;;;;;;;12.07;7.88;;;;;;;29.42;30.80;101946.75;5053796;28;20472;-89
2023/05/28 07:56:20;;;;;;;12.73;7.32;;;;;;;29.06;32.12;101944.41;5052765;28;20021;-90
2023/05/28 07:58:46;;;;;;;13.70;7.45;;;;;;;29.41;31.20;101944.25;5054381;28;20033;-90
2023/05/28 08:01:11;;;;;;;12.77;7.13;;;;;;;28.67;32.20;101948.16;5056626;28;20101;-89
2023/05/28 08:03:36;;;;;;;13.98;7.38;;;;;;;28.43;32.09;101957.25;5052914;28;20086;-90
2023/05/28 08:06:03;;;;;;;14.18;7.57;;;;;;;28.73;32.08;101947.84;5050292;28;20480;-90
2023/05/28 08:08:28;;;;;;;11.40;7.53;;;;;;;28.73;32.41;101947.00;5046701;28;20111;-90
2023/05/28 08:10:53;;;;;;;12.57;7.18;;;;;;;29.02;32.46;101946.13;5051384;28;20021;-90
2023/05/28 08:13:19;;;;;;;12.43;7.32;;;;;;;30.05;30.86;101949.41;5053121;28;20025;-90
2023/05/28 08:15:44;;;;;;;10.95;6.75;;;;;;;30.23;30.71;101942.13;5058768;28;20063;-90
2023/05/28 08:18:10;;;;;;;11.20;6.47;;;;;;;29.91;29.06;101943.78;5060627;28;20040;-90
2023/05/28 08:20:35;;;;;;;9.77;5.65;;;;;;;31.19;27.61;101947.28;5047619;28;20036;-90
2023/05/28 08:23:02;;;;;;;12.25;6.50;;;;;;;29.80;28.85;101930.06;5041279;28;20033;-89
2023/05/28 08:25:27;;;;;;;10.85;6.45;;;;;;;29.34;29.20;101936.25;5052524;28;20483;-89
2023/05/28 08:27:53;;;;;;;14.70;7.20;;;;;;;28.92;30.21;101929.63;5048594;28;20025;-90
2023/05/28 08:30:21;;;;;;;12.98;7.63;;;;;;;28.59;31.67;101936.59;5039781;28;20100;-90
2023/05/28 08:32:47;;;;;;;11.45;6.45;;;;;;;27.93;31.62;101933.31;5047682;28;20105;-89
2023/05/28 08:35:12;;;;;;;13.13;6.47;;;;;;;28.60;31.59;101932.69;5046495;28;20026;-90
2023/05/28 08:37:38;;;;;;;11.52;6.35;;;;;;;29.11;29.34;101937.97;5052141;28;20032;-89
2023/05/28 08:40:07;;;;;;;11.48;6.32;;;;;;;29.29;30.58;101933.59;5051409;28;20028;-90
2023/05/28 08:42:33;;;;;;;12.13;6.72;;;;;;;29.08;30.64;101931.09;5051323;28;20013;-89
2023/05/28 08:45:00;;;;;;;12.15;6.15;;;;;;;29.50;29.63;101931.38;5032226;28;20044;-90
2023/05/28 08:47:26;;;;;;;12.02;6.13;;;;;;;30.31;28.25;101929.50;5041829;28;20025;-90
2023/05/28 08:49:55;;;;;;;13.35;6.22;;;;;;;30.76;27.97;101934.50;5051725;28;20223;-90
2023/05/28 08:52:21;;;;;;;13.82;6.50;;;;;;;31.04;27.69;101918.63;5033715;28;20071;-90
2023/05/28 08:54:47;;;;;;;11.05;6.30;;;;;;;30.84;27.35;101923.50;5022316;28;20029;-90
2023/05/28 08:57:12;;;;;;;10.25;5.10;;;;;;;31.57;26.56;101917.19;5054748;28;20118;-90
2023/05/28 08:59:41;;;;;;;10.32;5.25;;;;;;;31.17;26.16;101917.00;5038151;28;20029;-89
2023/05/28 09:02:07;;;;;;;9.35;5.18;;;;;;;31.36;25.92;101907.69;5021098;28;20025;-89
2023/05/28 09:04:33;;;;;;;9.63;5.07;;;;;;;30.80;26.20;101916.91;5047375;28;20017;-88
2023/05/28 09:07:07;;;;;;;8.88;5.10;;;;;;;30.00;26.78;101905.06;5055711;28;20035;-89
2023/05/28 09:09:33;;;;;;;10.30;5.13;;;;;;;29.87;27.29;101901.09;5054497;28;20040;-89
2023/05/28 09:12:07;;;;;;;9.90;5.38;;;;;;;30.02;27.48;101898.06;5053722;28;20041;-88
2023/05/28 09:14:38;;;;;;;8.73;4.80;;;;;;;29.69;27.36;101900.00;5054586;28;20039;-89
2023/05/28 09:17:04;;;;;;;10.20;5.05;;;;;;;28.67;27.99;101889.97;5050857;28;20032;-88
2023/05/28 09:19:29;;;;;;;11.00;4.63;;;;;;;29.36;28.00;101886.91;5043103;28;20424;-87
2023/05/28 09:21:57;;;;;;;10.13;4.35;;;;;;;29.87;27.36;101889.97;5050243;28;20033;-88
2023/05/28 09:24:25;;;;;;;9.45;4.50;;;;;;;29.60;26.81;101886.81;5044930;28;20059;-88
2023/05/28 09:26:58;;;;;;;8.07;4.22;;;;;;;30.24;26.06;101889.09;5045462;28;20037;-88
2023/05/28 09:29:24;;;;;;;9.43;4.30;;;;;;;29.83;26.93;101891.75;5041285;28;20045;-88
2023/05/28 09:31:57;;;;;;;8.20;4.43;;;;;;;30.93;25.70;101898.56;5044931;28;20056;-89
2023/05/28 09:34:29;;;;;;;8.40;4.30;;;;;;;31.11;25.79;101899.56;5054098;28;20427;-88
2023/05/28 09:36:59;;;;;;;9.55;4.15;;;;;;;31.88;24.66;101894.19;5044806;28;20040;-88
2023/05/28 09:39:34;;;;;;;9.27;3.90;;;;;;;31.34;24.16;101896.03;5051510;28;20555;-88
2023/05/28 09:42:12;;;;;;;9.30;4.30;;;;;;;30.32;26.22;101895.88;5049475;28;20110;-87
2023/05/28 09:44:39;;;;;;;8.95;4.22;;;;;;;31.43;25.30;101894.97;5044244;28;20365;-87
2023/05/28 09:47:17;;;;;;;9.98;5.10;;;;;;;31.53;24.90;101896.69;5051916;28;20032;-87
2023/05/28 09:49:44;;;;;;;7.55;3.92;;;;;;;30.63;24.93;101892.53;5037207;28;20044;-87
2023/05/28 09:52:10;;;;;;;9.05;4.07;;;;;;;30.10;25.57;101891.81;5051906;28;20025;-87
2023/05/28 09:54:35;;;;;;;9.70;4.20;;;;;;;30.14;26.12;101891.22;5017572;28;20095;-86
2023/05/28 09:57:04;;;;;;;9.60;4.40;;;;;;;29.89;27.06;101890.50;5013112;28;20037;-86
2023/05/28 09:59:31;;;;;;;8.18;4.20;;;;;;;30.39;26.08;101887.13;5040985;28;20536;-86
2023/05/28 10:02:00;;;;;;;10.95;4.35;;;;;;;29.54;26.60;101887.19;5046296;28;20434;-86
2023/05/28 10:04:33;;;;;;;6.43;3.90;;;;;;;29.32;26.28;101883.03;5030988;28;20103;-86
2023/05/28 10:06:58;;;;;;;8.10;4.05;;;;;;;29.03;27.11;101892.34;5026025;28;20499;-86
2023/05/28 10:09:24;;;;;;;9.95;4.13;;;;;;;29.32;26.64;101880.28;5033118;28;20020;-86
2023/05/28 10:12:02;;;;;;;9.20;3.55;;;;;;;29.78;25.67;101878.75;5014810;28;20105;-87
2023/05/28 10:14:28;;;;;;;6.75;3.70;;;;;;;30.20;25.58;101881.66;5016810;28;20495;-86
2023/05/28 10:16:53;;;;;;;9.32;4.07;;;;;;;29.55;24.96;101891.63;5047612;28;20096;-85
2023/05/28 10:19:18;;;;;;;7.72;3.60;;;;;;;28.39;25.65;101886.97;5047744;28;20028;-86
2023/05/28 10:21:46;;;;;;;8.38;3.80;;;;;;;26.85;27.51;101886.91;5027478;28;20026;-84
2023/05/28 10:24:12;;;;;;;8.80;4.07;;;;;;;27.11;28.09;101892.34;5009512;28;20017;-86
2023/05/28 10:26:37;;;;;;;6.47;3.58;;;;;;;27.78;27.03;101889.16;5032844;28;20094;-86
2023/05/28 10:29:08;;;;;;;7.07;3.60;;;;;;;27.33;27.75;101889.16;5031485;28;20037;-86
2023/05/28 10:31:39;;;;;;;6.82;3.58;;;;;;;27.31;27.27;101888.63;5032604;28;20021;-86
2023/05/28 10:34:16;;;;;;;7.28;3.70;;;;;;;28.07;26.93;101893.88;5010414;28;20470;-86
2023/05/28 10:36:54;;;;;;;6.88;3.88;;;;;;;29.09;25.47;101885.59;5042721;28;20060;-86
2023/05/28 10:39:20;;;;;;;7.07;3.67;;;;;;;29.52;25.19;101883.88;5055785;28;20432;-86
2023/05/28 10:41:45;;;;;;;7.32;3.50;;;;;;;30.78;23.20;101879.44;5032675;28;20033;-86
2023/05/28 10:44:11;;;;;;;5.88;3.20;;;;;;;31.67;22.81;101893.03;5045299;28;20029;-86
2023/05/28 10:46:40;;;;;;;5.65;3.00;;;;;;;32.06;22.37;101883.94;5047733;28;20389;-86
2023/05/28 10:49:20;;;;;;;6.70;3.78;;;;;;;30.92;21.97;101885.78;5045302;28;20112;-87
2023/05/28 10:52:14;;;;;;;6.68;3.13;;;;;;;31.06;21.72;101888.56;5052224;28;20025;-86
2023/05/28 10:54:41;;;;;;;10.93;3.42;;;;;;;31.45;21.00;101891.88;5043735;28;20044;-87
2023/05/28 10:57:16;;;;;;;8.15;3.65;;;;;;;29.92;22.41;101889.91;5046375;28;20040;-86
2023/05/28 11:00:11;;;;;;;8.15;3.35;;;;;;;30.14;23.11;101882.91;5030571;28;20102;-86
2023/05/28 11:02:36;;;;;;;8.48;4.03;;;;;;;30.10;23.39;101886.28;5061027;28;20353;-87
2023/05/28 11:05:03;;;;;;;6.00;3.42;;;;;;;28.32;25.85;101886.50;5066430;28;20102;-86
2023/05/28 11:07:35;;;;;;;6.68;3.28;;;;;;;28.58;25.23;101881.50;5046679;28;20047;-87
2023/05/28 11:10:01;;;;;;;5.75;3.38;;;;;;;28.33;26.44;101888.16;5054916;28;20033;-86
2023/05/28 11:12:27;;;;;;;8.25;3.63;;;;;;;28.12;26.78;101886.41;5051519;28;20036;-86
2023/05/28 11:14:52;;;;;;;7.82;3.75;;;;;;;28.56;26.17;101881.81;5051736;28;20136;-86
2023/05/28 11:17:20;;;;;;;8.68;3.83;;;;;;;28.18;26.54;101887.19;5050328;28;20071;-86
2023/05/28 11:19:50;;;;;;;7.68;3.83;;;;;;;28.55;26.92;101873.75;5051336;28;20029;-86
2023/05/28 11:22:17;;;;;;;9.75;4.30;;;;;;;28.19;28.12;101874.16;5044722;28;20017;-86
2023/05/28 11:24:59;;;;;;;8.50;4.15;;;;;;;28.76;28.12;101881.88;5043725;28;20025;-86
2023/05/28 11:27:28;;;;;;;9.40;4.60;;;;;;;29.37;27.16;101882.19;5045353;28;20021;-87
2023/05/28 11:29:56;;;;;;;8.30;4.32;;;;;;;29.76;26.56;101879.06;5031805;28;20122;-87
2023/05/28 11:32:25;;;;;;;10.30;4.18;;;;;;;30.07;25.52;101873.00;5034455;28;20112;-86